Time;durP1;ratioP1;P1;durP2;ratioP2;P2;SDS_P1;SDS_P2;PMS_P1;PMS_P2;Temp;Humidity;BMP_temperature;BMP_pressure;BME280_temperature;BME280_humidity;BME280_pressure;Samples;Min_cycle;Max_cycle;Signal;HPM_P1;HPM_P2
2023/10/31 00:00:17;;;;;;;4.70;2.70;;;12.00;99.90;;;;;;5037871;28;20033;-50
2023/10/31 00:02:43;;;;;;;4.73;2.80;;;11.80;99.90;;;;;;5038521;28;20037;-51
2023/10/31 00:05:08;;;;;;;3.50;2.17;;;11.80;99.90;;;;;;5038353;28;20120;-51
2023/10/31 00:07:34;;;;;;;2.73;1.63;;;11.70;99.90;;;;;;5038319;28;20025;-55
2023/10/31 00:10:00;;;;;;;3.40;1.97;;;11.60;99.90;;;;;;5037789;28;20037;-52
2023/10/31 00:12:25;;;;;;;2.93;1.80;;;11.50;99.90;;;;;;5039238;28;20025;-54
2023/10/31 00:14:51;;;;;;;3.43;1.97;;;11.50;99.90;;;;;;5038535;28;20030;-53
2023/10/31 00:17:16;;;;;;;3.27;2.33;;;11.40;99.90;;;;;;5037701;28;20035;-55
2023/10/31 00:19:44;;;;;;;3.60;2.10;;;11.40;99.90;;;;;;5020395;28;20029;-51
2023/10/31 00:22:09;;;;;;;2.50;1.53;;;11.40;99.90;;;;;;5038112;28;20072;-54
2023/10/31 00:24:35;;;;;;;2.87;1.80;;;11.40;99.90;;;;;;5038032;28;20025;-55
2023/10/31 00:27:00;;;;;;;3.07;1.90;;;11.40;99.90;;;;;;5020157;28;20117;-53
2023/10/31 00:29:26;;;;;;;3.20;1.93;;;11.40;99.90;;;;;;5037324;28;20029;-51
2023/10/31 00:31:52;;;;;;;2.40;1.67;;;11.40;99.90;;;;;;5004072;28;20596;-55
2023/10/31 00:34:17;;;;;;;2.70;1.50;;;11.40;99.90;;;;;;5003972;28;20033;-53
2023/10/31 00:36:43;;;;;;;2.33;1.60;;;11.30;99.90;;;;;;5003570;28;20478;-52
2023/10/31 00:39:08;;;;;;;2.63;1.53;;;11.30;99.90;;;;;;5020041;28;20041;-51
2023/10/31 00:41:34;;;;;;;3.40;1.67;;;11.30;99.90;;;;;;5037778;28;20107;-53
2023/10/31 00:44:01;;;;;;;2.03;1.30;;;11.20;99.90;;;;;;5020761;28;20121;-55
2023/10/31 00:46:27;;;;;;;2.30;1.30;;;11.20;99.90;;;;;;5038000;28;20026;-54
2023/10/31 00:48:53;;;;;;;1.30;0.90;;;11.20;99.90;;;;;;5037636;28;20030;-54
2023/10/31 00:51:19;;;;;;;2.17;1.00;;;11.10;99.90;;;;;;5019945;28;20478;-54
2023/10/31 00:53:45;;;;;;;1.67;1.10;;;11.10;99.90;;;;;;5020224;28;20026;-50
2023/10/31 00:56:11;;;;;;;1.33;1.00;;;11.10;99.90;;;;;;5020293;28;20056;-54
2023/10/31 00:58:36;;;;;;;1.77;0.60;;;11.10;99.90;;;;;;5020043;28;20034;-51
2023/10/31 01:01:02;;;;;;;2.10;0.80;;;11.10;99.90;;;;;;5019534;28;20052;-50
2023/10/31 01:03:28;;;;;;;2.87;0.97;;;11.10;99.90;;;;;;5003324;28;20037;-53
2023/10/31 01:05:54;;;;;;;1.10;0.90;;;11.00;99.90;;;;;;5037543;28;20025;-55
2023/10/31 01:08:20;;;;;;;1.40;0.77;;;11.00;99.90;;;;;;5038462;28;20520;-53
2023/10/31 01:10:46;;;;;;;1.27;0.80;;;11.00;99.90;;;;;;5019772;28;20044;-54
2023/10/31 01:13:12;;;;;;;2.03;1.07;;;11.10;99.90;;;;;;5038098;28;20033;-53
2023/10/31 01:15:38;;;;;;;6.23;1.50;;;11.10;99.90;;;;;;5020031;28;20037;-52
2023/10/31 01:18:03;;;;;;;3.70;1.90;;;11.10;99.90;;;;;;5003705;28;20091;-53
2023/10/31 01:20:29;;;;;;;4.80;2.53;;;11.00;99.90;;;;;;5037538;28;20079;-55
2023/10/31 01:22:55;;;;;;;4.43;2.40;;;11.00;99.90;;;;;;5037925;28;20120;-51
2023/10/31 01:25:20;;;;;;;7.97;3.40;;;11.00;99.90;;;;;;5019556;28;20116;-53
2023/10/31 01:27:46;;;;;;;6.30;3.47;;;11.00;99.90;;;;;;5037371;28;20017;-53
2023/10/31 01:30:12;;;;;;;5.93;3.37;;;11.10;99.90;;;;;;5019872;28;20474;-50
2023/10/31 01:32:38;;;;;;;5.23;3.43;;;11.10;99.90;;;;;;5037744;28;20037;-52
2023/10/31 01:35:04;;;;;;;6.23;3.83;;;11.10;99.90;;;;;;5019500;28;20466;-51
2023/10/31 01:37:29;;;;;;;5.97;3.73;;;11.10;99.90;;;;;;5019170;28;20030;-50
2023/10/31 01:39:55;;;;;;;6.33;3.60;;;11.10;99.90;;;;;;5019329;28;20079;-53
2023/10/31 01:42:21;;;;;;;5.23;3.33;;;11.10;99.90;;;;;;5037242;28;20072;-52
2023/10/31 01:44:46;;;;;;;7.20;3.07;;;11.10;99.90;;;;;;5037286;28;20037;-52
2023/10/31 01:47:12;;;;;;;6.30;3.40;;;11.10;99.90;;;;;;5020001;28;20039;-50
2023/10/31 01:49:38;;;;;;;6.13;3.57;;;11.10;99.90;;;;;;5037329;28;20052;-51
2023/10/31 01:52:05;;;;;;;7.57;3.80;;;11.00;99.90;;;;;;5037231;28;20033;-50
2023/10/31 01:54:35;;;;;;;5.93;3.47;;;11.00;99.90;;;;;;5019933;28;20103;-50
2023/10/31 01:57:02;;;;;;;5.50;3.60;;;11.10;99.90;;;;;;5019391;28;20044;-50
2023/10/31 01:59:28;;;;;;;5.10;3.20;;;11.10;99.90;;;;;;5002093;28;20033;-51
2023/10/31 02:01:56;;;;;;;7.00;3.67;;;11.10;99.90;;;;;;5019191;28;20044;-50
2023/10/31 02:04:23;;;;;;;5.22;3.22;;;11.10;99.90;;;;;;5019049;28;20406;-50
2023/10/31 02:06:48;;;;;;;4.20;2.77;;;11.00;99.90;;;;;;5003088;28;20025;-51
2023/10/31 02:09:14;;;;;;;8.10;3.50;;;11.00;99.90;;;;;;5019235;28;20040;-50
2023/10/31 02:11:40;;;;;;;4.47;2.67;;;11.00;99.90;;;;;;5037095;28;20033;-50
2023/10/31 02:14:05;;;;;;;6.63;3.67;;;10.90;99.90;;;;;;5035125;28;20075;-49
2023/10/31 02:16:31;;;;;;;5.47;2.97;;;11.00;99.90;;;;;;5017821;28;20026;-52
2023/10/31 02:18:57;;;;;;;8.47;3.50;;;10.90;99.90;;;;;;5015772;28;20037;-54
2023/10/31 02:21:25;;;;;;;5.73;3.20;;;10.90;99.90;;;;;;5033168;28;20037;-51
2023/10/31 02:23:59;;;;;;;8.47;3.77;;;10.70;99.90;;;;;;5036756;28;20033;-54
2023/10/31 02:26:31;;;;;;;8.23;4.00;;;10.80;99.90;;;;;;5018484;28;20449;-53
2023/10/31 02:28:57;;;;;;;9.10;4.20;;;10.80;99.90;;;;;;5018544;28;20384;-51
2023/10/31 02:31:23;;;;;;;9.43;4.20;;;10.80;99.90;;;;;;5018745;28;20022;-51
2023/10/31 02:33:49;;;;;;;9.67;4.83;;;10.80;99.90;;;;;;5018277;28;20057;-54
2023/10/31 02:36:14;;;;;;;10.13;4.57;;;10.80;99.90;;;;;;5018700;28;20118;-54
2023/10/31 02:38:40;;;;;;;8.07;4.70;;;10.80;99.90;;;;;;5018297;28;20390;-53
2023/10/31 02:41:06;;;;;;;7.80;4.37;;;10.80;99.90;;;;;;5036113;28;20021;-55
2023/10/31 02:43:31;;;;;;;11.10;4.53;;;10.80;99.90;;;;;;5018161;28;20036;-54
2023/10/31 02:45:57;;;;;;;7.30;4.03;;;10.80;99.90;;;;;;5017576;28;20037;-53
2023/10/31 02:48:24;;;;;;;9.20;4.90;;;10.80;99.90;;;;;;5017781;28;20371;-53
2023/10/31 02:50:50;;;;;;;12.93;5.50;;;10.80;99.90;;;;;;5018288;28;20029;-55
2023/10/31 02:53:18;;;;;;;11.50;5.13;;;10.80;99.90;;;;;;5018270;28;20063;-55
2023/10/31 02:55:44;;;;;;;9.43;4.97;;;10.90;99.90;;;;;;5018166;28;20033;-54
2023/10/31 02:58:09;;;;;;;10.27;5.33;;;10.80;99.90;;;;;;5017860;28;20048;-55
2023/10/31 03:00:35;;;;;;;12.27;5.83;;;10.80;99.90;;;;;;5017992;28;20029;-51
2023/10/31 03:03:00;;;;;;;11.53;5.40;;;10.90;99.90;;;;;;5001485;28;20025;-53
2023/10/31 03:05:26;;;;;;;14.70;6.70;;;10.90;99.90;;;;;;5018094;28;20029;-55
2023/10/31 03:07:52;;;;;;;11.57;6.17;;;10.90;99.90;;;;;;5035558;28;20124;-53
2023/10/31 03:10:19;;;;;;;11.67;6.37;;;10.90;99.90;;;;;;5017726;28;20037;-51
2023/10/31 03:12:44;;;;;;;13.90;6.37;;;10.90;99.90;;;;;;5035233;28;20525;-52
2023/10/31 03:15:10;;;;;;;13.27;6.63;;;11.00;99.90;;;;;;5017280;28;20029;-52
2023/10/31 03:17:37;;;;;;;12.77;6.60;;;11.00;99.90;;;;;;5017403;28;20402;-55
2023/10/31 03:20:03;;;;;;;12.57;6.20;;;10.90;99.90;;;;;;5035178;28;20025;-52
2023/10/31 03:22:29;;;;;;;13.27;6.33;;;11.00;99.90;;;;;;5017277;28;20038;-51
2023/10/31 03:24:54;;;;;;;13.27;5.37;;;11.00;99.90;;;;;;5020352;28;20033;-54
2023/10/31 03:27:20;;;;;;;11.37;5.33;;;11.00;99.90;;;;;;5021219;28;20025;-54
2023/10/31 03:29:45;;;;;;;12.50;6.47;;;10.90;99.90;;;;;;5020705;28;20116;-54
2023/10/31 03:32:12;;;;;;;13.70;6.17;;;10.90;99.90;;;;;;5021593;28;20444;-52
2023/10/31 03:34:37;;;;;;;14.00;5.43;;;10.90;99.90;;;;;;5021137;28;20033;-54
2023/10/31 03:37:04;;;;;;;13.10;5.50;;;10.90;99.90;;;;;;5038547;28;20068;-55
2023/10/31 03:39:30;;;;;;;11.50;5.13;;;10.90;99.90;;;;;;5021356;28;20044;-54
2023/10/31 03:41:56;;;;;;;11.20;5.30;;;10.90;99.90;;;;;;5038354;28;20033;-54
2023/10/31 03:44:24;;;;;;;12.83;5.47;;;10.90;99.90;;;;;;5038746;28;20453;-55
2023/10/31 03:46:50;;;;;;;12.10;5.30;;;10.80;99.90;;;;;;5038268;28;20028;-53
2023/10/31 03:49:16;;;;;;;10.43;5.10;;;10.80;99.90;;;;;;5020831;28;20029;-55
2023/10/31 03:51:42;;;;;;;12.37;4.63;;;10.80;99.90;;;;;;5020391;28;20048;-54
2023/10/31 03:54:08;;;;;;;10.43;4.63;;;10.70;99.90;;;;;;5038347;28;20482;-52
2023/10/31 03:56:40;;;;;;;10.27;5.40;;;10.70;99.90;;;;;;5038023;28;20482;-54
2023/10/31 03:59:06;;;;;;;11.57;4.90;;;10.70;99.90;;;;;;5003605;28;20034;-54
2023/10/31 04:01:31;;;;;;;11.20;4.40;;;10.70;99.90;;;;;;5038417;28;20032;-54
2023/10/31 04:03:57;;;;;;;9.43;4.60;;;10.70;99.90;;;;;;5038029;28;20449;-52
2023/10/31 04:06:23;;;;;;;10.37;4.57;;;10.70;99.90;;;;;;5020146;28;20033;-53
2023/10/31 04:08:48;;;;;;;11.77;4.30;;;10.70;99.90;;;;;;5037635;28;20029;-55
2023/10/31 04:11:14;;;;;;;10.47;4.40;;;10.70;99.90;;;;;;5020493;28;20026;-51
2023/10/31 04:13:39;;;;;;;11.73;4.80;;;10.70;99.90;;;;;;5038247;28;20052;-53
2023/10/31 04:16:05;;;;;;;11.10;4.63;;;10.70;99.90;;;;;;5037629;28;20021;-55
2023/10/31 04:18:31;;;;;;;11.43;5.30;;;10.70;99.90;;;;;;5019958;28;20021;-55
2023/10/31 04:20:57;;;;;;;9.77;4.10;;;10.70;99.90;;;;;;5037266;28;20448;-52
2023/10/31 04:23:22;;;;;;;10.03;4.80;;;10.70;99.90;;;;;;5037488;28;20033;-55
2023/10/31 04:25:48;;;;;;;11.33;4.47;;;10.70;99.90;;;;;;5019704;28;20037;-55
2023/10/31 04:28:14;;;;;;;14.17;6.07;;;10.70;99.90;;;;;;5019726;28;20115;-55
2023/10/31 04:30:40;;;;;;;14.40;5.87;;;10.60;99.90;;;;;;5037908;28;20096;-55
2023/10/31 04:33:06;;;;;;;13.33;5.73;;;10.70;99.90;;;;;;5037927;28;20540;-54
2023/10/31 04:35:31;;;;;;;13.87;5.10;;;10.70;99.90;;;;;;5018344;28;20367;-54
2023/10/31 04:37:57;;;;;;;11.50;5.03;;;10.70;99.90;;;;;;5019794;28;20033;-55
2023/10/31 04:40:22;;;;;;;12.60;5.20;;;10.70;99.90;;;;;;5037151;28;20029;-56
2023/10/31 04:42:48;;;;;;;12.17;5.03;;;10.70;99.90;;;;;;5037053;28;20200;-55
2023/10/31 04:45:14;;;;;;;9.23;4.83;;;10.70;99.90;;;;;;5036612;28;20038;-55
2023/10/31 04:47:41;;;;;;;9.93;4.53;;;10.70;99.90;;;;;;5019751;28;20030;-54
2023/10/31 04:50:07;;;;;;;12.70;5.13;;;10.70;99.90;;;;;;5037776;28;20040;-54
2023/10/31 04:52:32;;;;;;;9.00;4.73;;;10.70;99.90;;;;;;5037680;28;20112;-53
2023/10/31 04:54:58;;;;;;;11.97;4.90;;;10.70;99.90;;;;;;5037589;28;20029;-53
2023/10/31 04:57:23;;;;;;;13.40;5.57;;;10.60;99.90;;;;;;5037192;28;20039;-54
2023/10/31 04:59:49;;;;;;;11.30;4.60;;;10.60;99.90;;;;;;5037241;28;20037;-54
2023/10/31 05:02:15;;;;;;;9.60;4.50;;;10.60;99.90;;;;;;5036619;28;20481;-55
2023/10/31 05:04:41;;;;;;;10.70;4.37;;;10.70;99.90;;;;;;5037461;28;20026;-51
2023/10/31 05:07:06;;;;;;;9.00;4.43;;;10.70;99.90;;;;;;5037361;28;20383;-54
2023/10/31 05:09:32;;;;;;;11.93;5.20;;;10.70;99.90;;;;;;5036531;28;20034;-54
2023/10/31 05:11:57;;;;;;;12.03;5.70;;;10.70;99.90;;;;;;5036789;28;20041;-51
2023/10/31 05:14:23;;;;;;;12.27;6.07;;;10.70;99.90;;;;;;5036731;28;20037;-55
2023/10/31 05:16:49;;;;;;;10.93;4.63;;;10.80;99.90;;;;;;5036924;28;20684;-55
2023/10/31 05:19:14;;;;;;;9.20;4.83;;;10.80;99.90;;;;;;5036650;28;20053;-55
2023/10/31 05:21:40;;;;;;;14.63;4.50;;;10.90;99.90;;;;;;5036520;28;20038;-52
2023/10/31 05:24:06;;;;;;;11.47;5.10;;;10.80;99.90;;;;;;5036289;28;20033;-54
2023/10/31 05:26:32;;;;;;;12.63;5.20;;;10.80;99.90;;;;;;5036647;28;20091;-54
2023/10/31 05:28:58;;;;;;;10.20;5.43;;;10.80;99.90;;;;;;5036298;28;20486;-55
2023/10/31 05:31:24;;;;;;;9.67;4.67;;;10.80;99.90;;;;;;5036512;28;20470;-56
2023/10/31 05:33:52;;;;;;;13.87;5.27;;;10.80;99.90;;;;;;5036518;28;20120;-53
2023/10/31 05:36:22;;;;;;;9.80;5.00;;;10.80;99.90;;;;;;5036990;28;20124;-52
2023/10/31 05:38:48;;;;;;;9.57;4.97;;;10.80;99.90;;;;;;5036141;28;20030;-52
2023/10/31 05:41:14;;;;;;;13.33;5.90;;;10.80;99.90;;;;;;5036896;28;20029;-55
2023/10/31 05:43:40;;;;;;;12.23;4.90;;;10.80;99.90;;;;;;5036799;28;20037;-55
2023/10/31 05:46:06;;;;;;;10.37;5.20;;;10.80;99.90;;;;;;5036520;28;20026;-54
2023/10/31 05:48:32;;;;;;;9.60;4.93;;;10.80;99.90;;;;;;5036394;28;20120;-51
2023/10/31 05:50:58;;;;;;;10.77;4.83;;;10.80;99.90;;;;;;5036185;28;20059;-50
2023/10/31 05:53:23;;;;;;;8.70;4.47;;;10.80;99.90;;;;;;5036517;28;20116;-54
2023/10/31 05:55:49;;;;;;;9.83;4.60;;;10.70;99.90;;;;;;5018323;28;20033;-51
2023/10/31 05:58:14;;;;;;;10.57;5.13;;;10.80;99.90;;;;;;5036259;28;20033;-52
2023/10/31 06:00:40;;;;;;;12.30;4.87;;;10.80;99.90;;;;;;5036322;28;20482;-54
2023/10/31 06:03:06;;;;;;;10.07;5.37;;;10.80;99.90;;;;;;5036144;28;20092;-54
2023/10/31 06:05:31;;;;;;;9.80;4.63;;;10.80;99.90;;;;;;5036322;28;20052;-54
2023/10/31 06:07:57;;;;;;;10.90;5.03;;;10.80;99.90;;;;;;5035638;28;20083;-50
2023/10/31 06:10:22;;;;;;;10.83;5.23;;;10.80;99.90;;;;;;5036322;28;20089;-52
2023/10/31 06:12:48;;;;;;;9.07;5.00;;;10.80;99.90;;;;;;5036735;28;20033;-52
2023/10/31 06:15:14;;;;;;;8.67;4.50;;;10.70;99.90;;;;;;5036247;28;20064;-54
2023/10/31 06:17:39;;;;;;;9.40;4.70;;;10.80;99.90;;;;;;5036407;28;20033;-51
2023/10/31 06:20:08;;;;;;;9.97;4.70;;;10.80;99.90;;;;;;5035370;28;20028;-55
2023/10/31 06:22:33;;;;;;;9.03;4.57;;;10.80;99.90;;;;;;5035966;28;20378;-54
2023/10/31 06:24:59;;;;;;;8.73;4.60;;;10.80;99.90;;;;;;5036015;28;20113;-53
2023/10/31 06:27:25;;;;;;;8.87;4.33;;;10.80;99.90;;;;;;5017921;28;20033;-51
2023/10/31 06:29:50;;;;;;;8.33;4.83;;;10.80;99.90;;;;;;5017836;28;20025;-51
2023/10/31 06:32:16;;;;;;;8.90;4.53;;;10.80;99.90;;;;;;5035493;28;20036;-54
2023/10/31 06:34:41;;;;;;;9.27;4.87;;;10.80;99.90;;;;;;5035586;28;20021;-55
2023/10/31 06:37:07;;;;;;;9.57;5.10;;;10.80;99.90;;;;;;5035880;28;20034;-54
2023/10/31 06:39:33;;;;;;;9.43;4.80;;;10.80;99.90;;;;;;5035862;28;20047;-53
2023/10/31 06:41:58;;;;;;;11.73;5.73;;;10.80;99.90;;;;;;5035501;28;20034;-50
2023/10/31 06:44:24;;;;;;;9.90;5.40;;;10.80;99.90;;;;;;5018664;28;20036;-53
2023/10/31 06:46:49;;;;;;;9.80;5.50;;;10.70;99.90;;;;;;5035822;28;20034;-53
2023/10/31 06:49:15;;;;;;;9.37;5.40;;;10.70;99.90;;;;;;5017492;28;20110;-53
2023/10/31 06:51:41;;;;;;;10.93;5.40;;;10.80;99.90;;;;;;5035815;28;20026;-52
2023/10/31 06:54:07;;;;;;;10.60;5.50;;;10.90;99.90;;;;;;5035704;28;20056;-50
2023/10/31 06:56:32;;;;;;;8.17;4.70;;;10.90;99.90;;;;;;5035835;28;20045;-55
2023/10/31 06:58:58;;;;;;;8.77;4.47;;;10.80;99.90;;;;;;5035986;28;20040;-52
2023/10/31 07:01:24;;;;;;;10.27;4.47;;;10.80;99.90;;;;;;5040193;28;20095;-55
2023/10/31 07:03:50;;;;;;;10.90;5.07;;;10.90;99.90;;;;;;5039913;28;20036;-53
2023/10/31 07:06:16;;;;;;;9.23;4.80;;;10.80;99.90;;;;;;5022401;28;20504;-53
2023/10/31 07:08:41;;;;;;;11.60;5.07;;;10.80;99.90;;;;;;5021838;28;20321;-55
2023/10/31 07:11:07;;;;;;;10.87;5.50;;;10.90;99.90;;;;;;5021240;28;20034;-53
2023/10/31 07:13:32;;;;;;;13.10;5.77;;;10.80;99.90;;;;;;5021936;28;20087;-50
2023/10/31 07:15:58;;;;;;;10.40;5.33;;;10.80;99.90;;;;;;5039503;28;20243;-53
2023/10/31 07:18:24;;;;;;;13.23;7.13;;;10.90;99.90;;;;;;5039908;28;20040;-55
2023/10/31 07:20:49;;;;;;;13.73;6.53;;;10.90;99.90;;;;;;5040191;28;20035;-49
2023/10/31 07:23:15;;;;;;;15.27;8.03;;;11.00;99.90;;;;;;5039747;28;20040;-51
2023/10/31 07:25:41;;;;;;;15.10;7.20;;;11.00;99.90;;;;;;5021558;28;20033;-50
2023/10/31 07:28:06;;;;;;;15.53;7.37;;;11.00;99.90;;;;;;5039563;28;20034;-54
2023/10/31 07:30:32;;;;;;;16.87;7.80;;;11.00;99.90;;;;;;5039427;28;20037;-51
2023/10/31 07:32:57;;;;;;;12.73;6.90;;;11.00;99.90;;;;;;5039877;28;20036;-53
2023/10/31 07:35:23;;;;;;;11.70;6.57;;;11.10;99.90;;;;;;5039435;28;20125;-50
2023/10/31 07:37:49;;;;;;;12.63;6.47;;;11.10;99.90;;;;;;5039598;28;20042;-55
2023/10/31 07:40:14;;;;;;;14.57;7.27;;;11.00;99.90;;;;;;5039299;28;20405;-52
2023/10/31 07:42:40;;;;;;;12.53;7.10;;;11.00;99.90;;;;;;5038727;28;20030;-53
2023/10/31 07:45:06;;;;;;;11.83;5.90;;;10.90;99.90;;;;;;5038785;28;20451;-51
2023/10/31 07:47:32;;;;;;;13.13;5.97;;;11.00;99.90;;;;;;5022177;28;20117;-49
2023/10/31 07:49:58;;;;;;;12.27;6.30;;;11.00;99.90;;;;;;5021905;28;20083;-50
2023/10/31 07:52:24;;;;;;;12.33;5.73;;;11.00;99.90;;;;;;5039751;28;20442;-52
2023/10/31 07:54:50;;;;;;;13.77;6.53;;;10.90;99.90;;;;;;5039666;28;20036;-52
2023/10/31 07:57:15;;;;;;;11.13;6.13;;;11.00;99.90;;;;;;5039467;28;20117;-51
2023/10/31 07:59:41;;;;;;;13.10;6.47;;;11.00;99.90;;;;;;5021506;28;20192;-52
2023/10/31 08:02:06;;;;;;;13.33;6.73;;;11.00;99.90;;;;;;5005019;28;20091;-51
2023/10/31 08:04:32;;;;;;;12.97;6.13;;;11.00;99.90;;;;;;5039872;28;20018;-50
2023/10/31 08:06:58;;;;;;;12.30;6.33;;;11.00;99.90;;;;;;5021882;28;20059;-50
2023/10/31 08:09:23;;;;;;;12.00;6.27;;;11.00;99.90;;;;;;5039588;28;20041;-50
2023/10/31 08:11:49;;;;;;;11.80;5.57;;;11.00;99.90;;;;;;5038539;28;20043;-51
2023/10/31 08:14:17;;;;;;;11.70;6.20;;;11.10;99.90;;;;;;5039876;28;20036;-54
2023/10/31 08:16:43;;;;;;;12.93;5.93;;;11.10;99.90;;;;;;5039344;28;20417;-50
2023/10/31 08:19:09;;;;;;;10.83;6.00;;;11.10;99.90;;;;;;5021990;28;20037;-51
2023/10/31 08:21:35;;;;;;;12.93;6.43;;;11.20;99.90;;;;;;5040052;28;20036;-49
2023/10/31 08:24:05;;;;;;;12.83;5.50;;;11.10;99.90;;;;;;5039402;28;20045;-49
2023/10/31 08:26:31;;;;;;;10.73;5.00;;;11.20;99.90;;;;;;5039216;28;20029;-52
2023/10/31 08:28:57;;;;;;;10.57;4.87;;;11.20;99.90;;;;;;5021517;28;20040;-50
2023/10/31 08:31:23;;;;;;;11.97;5.50;;;11.20;99.90;;;;;;5039855;28;20033;-52
2023/10/31 08:33:48;;;;;;;9.93;4.90;;;11.20;99.90;;;;;;5039239;28;20317;-51
2023/10/31 08:36:14;;;;;;;10.30;4.80;;;11.30;99.90;;;;;;5021272;28;20079;-51
2023/10/31 08:38:40;;;;;;;8.10;4.40;;;11.30;99.90;;;;;;5038563;28;20072;-49
2023/10/31 08:41:05;;;;;;;8.40;5.10;;;11.30;99.90;;;;;;5019959;28;20029;-49
2023/10/31 08:43:31;;;;;;;9.63;4.77;;;11.20;99.90;;;;;;5036959;28;20034;-50
2023/10/31 08:45:57;;;;;;;8.07;4.40;;;11.30;99.90;;;;;;5037138;28;20032;-53
2023/10/31 08:48:23;;;;;;;8.03;4.47;;;11.40;99.90;;;;;;5019608;28;20031;-54
2023/10/31 08:50:48;;;;;;;7.83;4.30;;;11.40;99.90;;;;;;5036891;28;20033;-51
2023/10/31 08:53:14;;;;;;;7.97;3.97;;;11.50;99.90;;;;;;5037259;28;20088;-54
2023/10/31 08:55:43;;;;;;;7.00;3.60;;;11.40;99.90;;;;;;5037639;28;20033;-54
2023/10/31 08:58:10;;;;;;;6.85;3.55;;;11.50;99.90;;;;;;5019352;28;20037;-52
2023/10/31 09:00:36;;;;;;;11.63;4.40;;;11.50;99.90;;;;;;5036837;28;20034;-53
2023/10/31 09:03:02;;;;;;;7.97;4.00;;;11.50;99.90;;;;;;5036842;28;20056;-53
2023/10/31 09:05:27;;;;;;;7.37;3.70;;;11.40;99.90;;;;;;5037262;28;20029;-55
2023/10/31 09:07:53;;;;;;;5.67;3.37;;;11.40;99.90;;;;;;5037417;28;20060;-51
2023/10/31 09:10:18;;;;;;;7.77;4.23;;;11.50;99.90;;;;;;5036835;28;20041;-53
2023/10/31 09:12:46;;;;;;;5.30;3.30;;;11.50;99.90;;;;;;5036455;28;20057;-53
2023/10/31 09:15:13;;;;;;;6.80;3.33;;;11.50;99.90;;;;;;5036943;28;20034;-54
2023/10/31 09:17:38;;;;;;;5.70;3.63;;;11.70;99.90;;;;;;5036832;28;20033;-53
2023/10/31 09:20:05;;;;;;;7.07;3.03;;;11.80;99.90;;;;;;5019104;28;20068;-54
2023/10/31 09:22:30;;;;;;;6.85;3.60;;;11.80;99.90;;;;;;5036222;28;20033;-54
2023/10/31 09:24:56;;;;;;;19.37;8.73;;;11.80;99.90;;;;;;5036653;28;20028;-54
2023/10/31 09:27:21;;;;;;;7.57;3.80;;;11.80;99.90;;;;;;5036486;28;20482;-52
2023/10/31 09:29:47;;;;;;;7.07;3.40;;;11.80;99.90;;;;;;5036479;28;20075;-53
2023/10/31 09:32:14;;;;;;;6.10;3.20;;;11.70;99.90;;;;;;5002952;28;20375;-51
2023/10/31 09:34:40;;;;;;;6.87;3.47;;;11.70;99.90;;;;;;5036779;28;20025;-54
2023/10/31 09:37:05;;;;;;;5.53;3.33;;;11.80;99.90;;;;;;5036217;28;20609;-53
2023/10/31 09:39:31;;;;;;;5.30;3.50;;;11.70;99.90;;;;;;5018900;28;20029;-54
2023/10/31 09:41:57;;;;;;;6.60;3.70;;;11.80;99.90;;;;;;5036224;28;20052;-55
2023/10/31 09:44:23;;;;;;;6.28;3.78;;;12.10;99.90;;;;;;5036829;28;20029;-54
2023/10/31 09:46:51;;;;;;;8.88;4.07;;;12.30;99.90;;;;;;5036737;28;20032;-53
2023/10/31 09:49:17;;;;;;;7.90;3.80;;;12.40;99.90;;;;;;5036661;28;20117;-51
2023/10/31 09:51:43;;;;;;;6.18;3.58;;;12.30;99.90;;;;;;5036781;28;20079;-51
2023/10/31 09:54:10;;;;;;;9.27;4.05;;;12.20;99.90;;;;;;5037403;28;20034;-54
2023/10/31 09:56:35;;;;;;;7.95;4.47;;;12.20;99.90;;;;;;5036525;28;20022;-52
2023/10/31 09:59:05;;;;;;;9.02;4.25;;;12.10;99.90;;;;;;5036562;28;20083;-54
2023/10/31 10:01:30;;;;;;;10.90;4.40;;;12.00;99.90;;;;;;5036291;28;20093;-54
2023/10/31 10:03:56;;;;;;;8.80;4.15;;;12.00;99.90;;;;;;5019117;28;20065;-53
2023/10/31 10:06:23;;;;;;;8.80;4.30;;;11.90;99.90;;;;;;5036247;28;20486;-52
2023/10/31 10:08:49;;;;;;;9.10;4.63;;;11.90;99.90;;;;;;5035530;28;20168;-52
2023/10/31 10:11:15;;;;;;;7.80;4.00;;;11.80;99.90;;;;;;5018490;28;20454;-53
2023/10/31 10:13:41;;;;;;;11.05;4.95;;;11.90;99.90;;;;;;5035772;28;20124;-53
2023/10/31 10:16:07;;;;;;;10.98;4.47;;;11.90;99.90;;;;;;5036466;28;20065;-52
2023/10/31 10:18:35;;;;;;;7.90;4.23;;;12.00;99.90;;;;;;5036066;28;20029;-55
2023/10/31 10:21:03;;;;;;;7.27;3.93;;;11.90;99.90;;;;;;5037071;28;20037;-55
2023/10/31 10:23:29;;;;;;;8.65;4.10;;;12.00;99.90;;;;;;5036073;28;20080;-51
2023/10/31 10:25:57;;;;;;;6.47;3.63;;;12.10;99.90;;;;;;5036124;28;20371;-54
2023/10/31 10:28:26;;;;;;;9.63;3.88;;;12.10;99.90;;;;;;5035975;28;20474;-53
2023/10/31 10:30:53;;;;;;;7.00;3.50;;;12.10;99.90;;;;;;5001915;28;20029;-53
2023/10/31 10:33:20;;;;;;;6.72;3.78;;;12.20;99.90;;;;;;5035136;28;20044;-54
2023/10/31 10:35:46;;;;;;;13.85;5.80;;;12.20;99.90;;;;;;5035622;28;20072;-52
2023/10/31 10:38:14;;;;;;;17.05;7.75;;;12.30;99.90;;;;;;5035871;28;20045;-54
2023/10/31 10:40:41;;;;;;;7.50;4.05;;;12.40;99.90;;;;;;5036092;28;20041;-52
2023/10/31 10:43:13;;;;;;;8.07;3.75;;;12.40;99.90;;;;;;5035680;28;20025;-53
2023/10/31 10:45:43;;;;;;;7.00;3.50;;;12.40;99.90;;;;;;5035783;28;20033;-52
2023/10/31 10:48:15;;;;;;;8.63;3.70;;;12.40;99.90;;;;;;5036408;28;20065;-53
2023/10/31 10:50:47;;;;;;;6.13;2.88;;;12.50;99.90;;;;;;5035350;28;20087;-51
2023/10/31 10:53:29;;;;;;;6.25;3.17;;;12.60;99.90;;;;;;5035959;28;20048;-53
2023/10/31 10:56:02;;;;;;;7.47;2.92;;;12.70;99.90;;;;;;5035503;28;20108;-53
2023/10/31 10:58:48;;;;;;;7.10;3.25;;;12.80;99.90;;;;;;5035714;28;20030;-53
2023/10/31 11:01:17;;;;;;;4.40;2.65;;;12.90;99.90;;;;;;5035858;28;20029;-55
2023/10/31 11:03:45;;;;;;;4.03;2.50;;;13.00;99.90;;;;;;5035857;28;20140;-50
2023/10/31 11:06:11;;;;;;;10.32;3.00;;;13.30;99.90;;;;;;5017170;28;20029;-53
2023/10/31 11:08:37;;;;;;;5.05;2.75;;;13.40;99.90;;;;;;5035705;28;20040;-54
2023/10/31 11:11:04;;;;;;;6.60;3.40;;;13.30;99.90;;;;;;5017922;28;20398;-54
2023/10/31 11:13:30;;;;;;;6.38;2.92;;;13.10;99.90;;;;;;5035951;28;20082;-52
2023/10/31 11:16:01;;;;;;;4.85;2.88;;;13.00;99.90;;;;;;5035826;28;20371;-52
2023/10/31 11:18:27;;;;;;;4.88;2.63;;;13.00;99.90;;;;;;5001636;28;20033;-54
2023/10/31 11:20:53;;;;;;;7.65;2.60;;;13.00;99.90;;;;;;5035446;28;20061;-51
2023/10/31 11:23:20;;;;;;;5.78;2.45;;;13.00;99.90;;;;;;5035301;28;20440;-53
2023/10/31 11:25:50;;;;;;;6.20;2.47;;;13.00;99.90;;;;;;5035388;28;20593;-55
2023/10/31 11:28:17;;;;;;;5.82;2.30;;;13.30;99.90;;;;;;5035066;28;20025;-54
2023/10/31 11:30:45;;;;;;;7.15;2.45;;;13.50;99.90;;;;;;5035551;28;20548;-51
2023/10/31 11:33:16;;;;;;;4.60;2.00;;;13.70;99.90;;;;;;5034832;28;20026;-52
2023/10/31 11:35:44;;;;;;;6.40;2.05;;;13.70;99.90;;;;;;5034877;28;20033;-53
2023/10/31 11:38:11;;;;;;;5.32;2.10;;;13.70;99.90;;;;;;5035293;28;20060;-51
2023/10/31 11:41:01;;;;;;;6.32;1.90;;;13.70;99.90;;;;;;5035276;28;20521;-53
2023/10/31 11:43:41;;;;;;;5.50;1.85;;;14.00;99.90;;;;;;5034961;28;20056;-53
2023/10/31 11:46:28;;;;;;;5.88;1.70;;;14.90;99.90;;;;;;5019554;28;20482;-52
2023/10/31 11:48:59;;;;;;;3.55;1.58;;;15.90;99.90;;;;;;5038884;28;20053;-53
2023/10/31 11:51:26;;;;;;;5.05;1.90;;;16.50;99.90;;;;;;5038026;28;20034;-53
2023/10/31 11:53:52;;;;;;;4.32;1.55;;;16.30;99.90;;;;;;5038770;28;20037;-52
2023/10/31 11:56:19;;;;;;;3.72;1.30;;;16.20;99.90;;;;;;5038429;28;20112;-52
2023/10/31 11:58:55;;;;;;;3.53;1.63;;;15.80;99.90;;;;;;5038289;28;20026;-53
2023/10/31 12:01:21;;;;;;;2.50;1.13;;;15.30;99.90;;;;;;5038445;28;20033;-53
2023/10/31 12:03:47;;;;;;;3.08;1.40;;;15.10;99.90;;;;;;5037990;28;20053;-51
2023/10/31 12:06:14;;;;;;;4.28;1.70;;;14.70;99.90;;;;;;5038451;28;20036;-54
2023/10/31 12:08:42;;;;;;;2.83;1.35;;;14.40;99.90;;;;;;5037541;28;20045;-51
2023/10/31 12:11:16;;;;;;;5.97;1.20;;;14.40;99.90;;;;;;5038421;28;20070;-49
2023/10/31 12:13:57;;;;;;;5.55;1.20;;;15.10;99.90;;;;;;5020624;28;20033;-52
2023/10/31 12:16:33;;;;;;;3.92;1.60;;;15.70;99.90;;;;;;5037838;28;20040;-54
2023/10/31 12:19:02;;;;;;;4.60;1.40;;;16.00;99.90;;;;;;5038053;28;20041;-51
2023/10/31 12:21:41;;;;;;;3.53;1.30;;;15.80;99.90;;;;;;5020792;28;20568;-53
2023/10/31 12:24:12;;;;;;;4.60;1.50;;;15.40;99.90;;;;;;5037565;28;20080;-54
2023/10/31 12:26:38;;;;;;;2.80;1.40;;;15.30;99.90;;;;;;5037900;28;20045;-54
2023/10/31 12:29:11;;;;;;;6.75;1.63;;;15.20;99.90;;;;;;5038334;28;20025;-53
2023/10/31 12:31:48;;;;;;;3.63;1.10;;;15.10;99.90;;;;;;5038641;28;20036;-55
2023/10/31 12:34:15;;;;;;;2.58;1.20;;;15.10;99.90;;;;;;5037980;28;20466;-54
2023/10/31 12:36:42;;;;;;;4.53;1.48;;;14.90;99.90;;;;;;5037391;28;20035;-54
2023/10/31 12:39:11;;;;;;;4.57;1.52;;;14.70;99.90;;;;;;5037406;28;20033;-54